Humphrey, Nebraska
Current Conditions -  °F | °C
As of 11:56 AM on Thursday 30 Oct 2014 (Local Time) from KOFK Reporting Station
Clear Clear  
Wind Chill: 56°   Ceiling: Unl
Heat Index: 56°   Visibility: 10mi
Dew Point: 41°   Wind: 18mph
Humidity: 57%   Direction: 330°NNW
Pressure: 30.12"   Gusts: 25mph
Location:  41.69°N, 97.48°W
Report Text: KOFK 301656Z AUTO 33016G22KT 10SM CLR 13/05 A3012 RMK AO2 PK WND 33026/1631 SLP203 T01330050
Loading
Personal Weather Stations






























Interactive Weather Map
Tropical Storm Tracking
New forecast layout! Learn more

10-Day Weather Forecast

Advertisements
Track Severe Weather on mobile